• Join FlightAware (Why Join?)
  • Login
  • US Flag 
01:38AM EDT


 

Airport Tracker/Info


-or-


 

Live Flight TrackerFlight Track Log ✈ SWA3206 ✈ 28-Apr-2013 ✈ KMDW - KSAN

Flight Track Log - Related Links

Times and Time Zones

All times are in EDT time to prevent confusion due to time zone crossing. See the SWA3206 flight status page for this flight to view local times or setup timezone preferences in your user account.

Time Position Orientation Groundspeed Altitude Reporting Facility
EDT Latitude Longitude Course Direction KTS MPH feet Rate Location/Type
02:07PM 41.7833 -87.8000 255° West 175 201 2,100  Level Chicago TRACON
02:08PM 41.7589 -87.9206 255° West 223 257 4,000 720 Climbing Chicago Center
02:09PM 41.7542 -88.0153 266° West 246 283 4,200 1,920 Climbing Chicago Center
02:10PM 41.7614 -88.1294 275° West 269 310 8,000 3,360 Climbing Chicago Center
02:11PM 41.7825 -88.2311 286° West 297 342 11,200 2,940 Climbing Chicago Center
02:12PM 41.7775 -88.3408 267° West 301 346 14,100 2,040 Climbing Chicago Center
02:14PM 41.7611 -88.4628 260° West 349 402 15,500 1,920 Climbing Chicago Center
02:15PM 41.7325 -88.5986 254° West 382 440 18,100 2,760 Climbing Chicago Center
02:16PM 41.7000 -88.7656 255° West 390 449 21,300 2,580 Climbing Chicago Center
02:17PM 41.6719 -88.9119 256° West 403 464 23,500 1,980 Climbing Chicago Center
02:18PM 41.6422 -89.0622 255° West 416 479 25,400 1,740 Climbing Chicago Center
02:19PM 41.6128 -89.2186 256° West 431 496 27,100 1,620 Climbing Chicago Center
02:20PM 41.5814 -89.3786 255° West 442 509 28,800 1,740 Climbing Chicago Center
02:21PM 41.5411 -89.5739 255° West 456 525 30,800 1,980 Climbing Chicago Center
02:22PM 41.5083 -89.7367 255° West 451 519 32,900 1,500 Climbing Chicago Center
02:23PM 41.4764 -89.8944 255° West 443 510 34,000 480 Climbing Chicago Center
02:24PM 41.4433 -90.0528 254° West 444 511 34,000 900 Level Chicago Center
02:25PM 41.4117 -90.2083 255° West 439 505 35,900 1,080 Climbing Chicago Center
02:26PM 41.3808 -90.3592 255° West 426 490 36,300 720 Climbing Chicago Center
02:27PM 41.3422 -90.5428 254° West 431 496 37,500 780 Climbing Chicago Center
02:28PM 41.3050 -90.6989 252° West 444 511 38,000 240 Climbing Chicago Center
02:29PM 41.2619 -90.8453 249° West 429 494 38,000  Level Chicago Center
02:30PM 41.2369 -90.9978 258° West 425 489 38,000  Level Chicago Center
02:31PM 41.2106 -91.1517 257° West 426 490 38,000  Level Chicago Center
02:32PM 41.1828 -91.3044 256° West 427 491 38,000  Level Chicago Center
02:33PM 41.1500 -91.4892 257° West 430 495 38,000  Level Chicago Center
02:34PM 41.1217 -91.6431 256° West 430 495 38,000  Level Chicago Center
02:35PM 41.0925 -91.8028 256° West 436 502 38,000  Level Chicago Center
02:36PM 41.0639 -91.9550 256° West 432 497 38,000  Level Chicago Center
02:37PM 41.0356 -92.1083 256° West 433 498 38,000  Level Chicago Center
02:38PM 41.0008 -92.2925 256° West 434 499 38,000  Level Chicago Center
02:39PM 40.9722 -92.4458 256° West 434 499 38,000  Level Chicago Center
02:40PM 40.9419 -92.5983 255° West 433 498 38,000  Level Chicago Center
02:41PM 40.9133 -92.7492 256° West 430 495 38,000  Level Chicago Center
02:42PM 40.8836 -92.9003 255° West 430 495 38,000  Level Chicago Center
02:43PM 40.8725 -92.9603 256° West 429 494 38,000  Level Minneapolis Center
02:44PM 40.8375 -93.1386 256° West 427 491 38,000  Level Minneapolis Center
02:45PM 40.8083 -93.2833 255° West 418 481 38,000  Level Minneapolis Center
02:46PM 40.7783 -93.4300 255° West 418 481 38,000  Level Minneapolis Center
02:47PM 40.7494 -93.5772 256° West 419 482 38,000  Level Minneapolis Center
02:48PM 40.7172 -93.7278 254° West 427 491 38,000  Level Minneapolis Center
02:49PM 40.6828 -93.9042 256° West 423 487 38,000  Level Minneapolis Center
02:50PM 40.6514 -94.0533 255° West 424 488 38,000  Level Minneapolis Center
02:51PM 40.6186 -94.2019 254° West 426 490 38,000  Level Minneapolis Center
02:52PM 40.5889 -94.3489 255° West 421 484 38,000  Level Minneapolis Center
02:53PM 40.5564 -94.4978 254° West 423 487 38,000  Level Minneapolis Center
02:54PM 40.5200 -94.6725 255° West 423 487 38,000  Level Minneapolis Center
02:55PM 40.4903 -94.8194 255° West 419 482 38,000  Level Minneapolis Center
02:56PM 40.4586 -94.9664 254° West 417 480 38,000  Level Minneapolis Center
02:57PM 40.4278 -95.1161 255° West 419 482 38,000  Level Minneapolis Center
02:58PM 40.3928 -95.2711 254° West 432 497 38,000  Level Minneapolis Center
02:59PM 40.3528 -95.4514 254° West 429 494 38,000  Level Minneapolis Center
03:00PM 40.3197 -95.6017 254° West 428 493 38,000  Level Minneapolis Center
03:01PM 40.2864 -95.7525 254° West 430 495 38,000  Level Minneapolis Center
03:02PM 40.2522 -95.9028 253° West 430 495 38,000  Level Minneapolis Center
03:04PM 40.2192 -96.0506 254° West 425 489 38,000  Level Minneapolis Center
03:05PM 40.1856 -96.1972 253° West 421 484 38,000  Level Minneapolis Center
03:06PM 40.1514 -96.3461 253° West 424 488 38,000  Level Minneapolis Center
03:07PM 40.1111 -96.5228 253° West 423 487 38,000  Level Minneapolis Center
03:08PM 40.0708 -96.6989 253° West 423 487 38,000  Level Minneapolis Center
03:09PM 40.0353 -96.8475 253° West 425 489 38,000  Level Minneapolis Center
03:10PM 40.0000 -96.9956 253° West 427 491 38,000  Level Minneapolis Center
03:11PM 39.9653 -97.1433 253° West 426 490 38,000  Level Minneapolis Center
03:12PM 39.9306 -97.2914 253° West 426 490 38,000  Level Minneapolis Center
03:13PM 39.8917 -97.4531 253° West 424 488 38,000  Level Minneapolis Center
03:14PM 39.8561 -97.5994 252° West 424 488 38,000  Level Minneapolis Center
03:15PM 39.8203 -97.7447 252° West 422 486 38,000  Level Minneapolis Center
03:16PM 39.7850 -97.8886 252° West 420 483 38,000  Level Minneapolis Center
03:17PM 39.7494 -98.0342 252° West 420 483 38,000  Level Minneapolis Center
03:18PM 39.7139 -98.1794 252° West 420 483 38,000  Level Minneapolis Center
03:19PM 39.6694 -98.3553 252° West 424 488 38,000  Level Minneapolis Center
03:20PM 39.6328 -98.5019 252° West 426 490 38,000  Level Minneapolis Center
03:21PM 39.6178 -98.5628 252° West 429 494 38,000  Level Denver Center
03:22PM 39.5808 -98.7086 252° West 428 493 38,000  Level Denver Center
03:23PM 39.5361 -98.8850 252° West 429 494 38,000  Level Denver Center
03:24PM 39.4986 -99.0317 252° West 428 493 38,000  Level Denver Center
03:25PM 39.4608 -99.1772 251° West 427 491 38,000  Level Denver Center
03:26PM 39.4203 -99.3356 252° West 428 493 38,000  Level Denver Center
03:27PM 39.3839 -99.4725 251° West 422 486 38,000  Level Denver Center
03:28PM 39.3417 -99.6333 251° West 422 486 38,000  Level Denver Center
03:29PM 39.3056 -99.7700 251° West 419 482 38,000  Level Denver Center
03:30PM 39.2561 -99.9533 251° West 421 484 38,000  Level Denver Center
03:31PM 39.2197 -100.0911 251° West 424 488 38,000  Level Denver Center
03:32PM 39.1772 -100.2492 251° West 418 481 38,000  Level Denver Center
03:33PM 39.1397 -100.3853 250° West 421 484 38,000  Level Denver Center
03:34PM 39.0964 -100.5436 251° West 418 481 38,000  Level Denver Center
03:35PM 39.0592 -100.6808 251° West 422 486 38,000  Level Denver Center
03:36PM 39.0211 -100.8164 250° West 420 483 38,000  Level Denver Center
03:37PM 38.9756 -100.9819 251° West 426 490 38,000  Level Denver Center
03:39PM 38.9381 -101.1183 251° West 425 489 38,000  Level Denver Center
03:40PM 38.8936 -101.2753 250° West 422 486 38,000  Level Denver Center
03:41PM 38.8550 -101.4131 250° West 426 490 38,000  Level Denver Center
03:42PM 38.8097 -101.5714 250° West 426 490 38,000  Level Denver Center
03:43PM 38.7703 -101.7092 250° West 429 494 38,000  Level Denver Center
03:44PM 38.7250 -101.8714 250° West 433 498 38,000  Level Denver Center
03:45PM 38.6839 -102.0067 249° West 430 495 38,000  Level Denver Center
03:46PM 38.6383 -102.1658 250° West 428 493 38,000  Level Denver Center
03:47PM 38.5992 -102.3006 250° West 425 489 38,000  Level Denver Center
03:48PM 38.5611 -102.4353 250° West 423 487 38,000  Level Denver Center
03:49PM 38.5064 -102.6150 249° West 426 490 38,000  Level Denver Center
03:50PM 38.4603 -102.7722 250° West 425 489 38,000  Level Denver Center
03:51PM 38.4194 -102.9083 249° West 428 493 38,000  Level Denver Center
03:52PM 38.3736 -103.0656 250° West 425 489 38,000  Level Denver Center
03:53PM 38.3314 -103.2000 248° West 428 493 38,000  Level Denver Center
03:54PM 38.2903 -103.3389 249° West 428 493 38,000  Level Denver Center
03:55PM 38.2428 -103.4942 249° West 425 489 38,000  Level Denver Center
03:56PM 38.2017 -103.6286 249° West 427 491 38,000  Level Denver Center
03:57PM 38.1531 -103.7847 248° West 426 490 38,000  Level Denver Center
03:58PM 38.1131 -103.9181 249° West 426 490 38,000  Level Denver Center
03:59PM 38.0642 -104.0736 248° West 425 489 38,000  Level Denver Center
04:00PM 38.0222 -104.2075 248° West 428 493 38,000  Level Denver Center
04:01PM 37.9728 -104.3633 248° West 431 496 38,000  Level Denver Center
04:02PM 37.9317 -104.4972 249° West 428 493 38,000  Level Denver Center
04:04PM 37.8803 -104.6581 248° West 429 494 38,000  Level Denver Center
04:05PM 37.8400 -104.7872 248° West 431 496 38,000  Level Denver Center
04:06PM 37.7889 -104.9428 247° West 431 496 38,000  Level Denver Center
04:07PM 37.7456 -105.0767 248° West 431 496 38,000  Level Denver Center
04:08PM 37.6953 -105.2325 248° West 429 494 38,000  Level Denver Center
04:09PM 37.6519 -105.3658 248° West 429 494 38,000  Level Denver Center
04:10PM 37.6008 -105.5228 248° West 432 497 38,000  Level Denver Center
04:11PM 37.5628 -105.6336 247° West 433 498 38,000  Level Denver Center
04:12PM 37.5064 -105.8069 248° West 435 501 38,000  Level Denver Center
04:13PM 37.4608 -105.9417 247° West 435 501 38,000  Level Denver Center
04:14PM 37.4092 -106.0983 247° West 435 501 38,000  Level Denver Center
04:15PM 37.3636 -106.2344 247° West 441 507 38,000  Level Denver Center
04:16PM 37.3103 -106.3894 247° West 433 498 38,000  Level Denver Center
04:17PM 37.2656 -106.5244 247° West 436 502 38,000  Level Denver Center
04:18PM 37.2128 -106.6808 247° West 437 503 38,000  Level Denver Center
04:19PM 37.1669 -106.8153 247° West 439 505 38,000  Level Denver Center
04:20PM 37.1139 -106.9700 247° West 433 498 38,000  Level Denver Center
04:21PM 37.0678 -107.1028 247° West 435 501 38,000  Level Denver Center
04:22PM 37.0139 -107.2586 247° West 438 504 38,000  Level Denver Center
04:23PM 36.9675 -107.3908 246° West 435 501 38,000  Level Denver Center
04:24PM 36.9125 -107.5475 246° West 441 507 38,000  Level Denver Center
04:25PM 36.8667 -107.6811 247° West 438 504 38,000  Level Denver Center
04:26PM 36.8106 -107.8367 246° West 440 506 38,000  Level Denver Center
04:27PM 36.7639 -107.9692 246° West 437 503 38,000  Level Denver Center
04:28PM 36.7169 -108.1017 246° West 437 503 38,000  Level Denver Center
04:29PM 36.6617 -108.2553 246° West 436 502 38,000  Level Denver Center
04:30PM 36.6144 -108.3878 246° West 439 505 38,000  Level Denver Center
04:31PM 36.5583 -108.5406 245° Southwest 436 502 38,000  Level Denver Center
04:32PM 36.5111 -108.6722 246° West 436 502 38,000  Level Denver Center
04:33PM 36.4550 -108.8242 245° Southwest 436 502 38,000  Level Denver Center
04:35PM 36.4072 -108.9547 246° West 436 502 38,000  Level Denver Center
04:36PM 36.3519 -109.1056 246° West 435 501 38,000  Level Denver Center
04:37PM 36.3036 -109.2339 245° Southwest 433 498 38,000  Level Denver Center
04:38PM 36.2469 -109.3850 245° Southwest 435 501 38,000  Level Denver Center
04:39PM 36.1986 -109.5131 245° Southwest 432 497 38,000  Level Denver Center
04:40PM 36.1431 -109.6642 246° West 433 498 38,000  Level Denver Center
04:41PM 36.0939 -109.7942 245° Southwest 437 503 38,000  Level Denver Center
04:42PM 36.0358 -109.9453 245° Southwest 437 503 38,000  Level Denver Center
04:43PM 35.9875 -110.0750 245° Southwest 435 501 38,000  Level Denver Center
04:44PM 35.9314 -110.2214 245° Southwest 437 503 38,000  Level Denver Center
04:45PM 35.8789 -110.3575 245° Southwest 438 504 38,000  Level Denver Center
04:46PM 35.8319 -110.4628 241° Southwest 437 503 38,000  Level Albuquerque Center
04:47PM 35.7831 -110.5950 246° West 441 507 38,000  Level Albuquerque Center
04:48PM 35.7239 -110.7475 244° Southwest 441 507 38,000  Level Albuquerque Center
04:49PM 35.6728 -110.8778 244° Southwest 442 509 38,000  Level Albuquerque Center
04:50PM 35.6128 -111.0303 244° Southwest 444 511 38,000  Level Albuquerque Center
04:51PM 35.5619 -111.1608 244° Southwest 443 510 38,000  Level Albuquerque Center
04:52PM 35.5022 -111.3131 244° Southwest 443 510 38,000  Level Albuquerque Center
04:53PM 35.4478 -111.4572 245° Southwest 450 518 38,000  Level Albuquerque Center
04:54PM 35.3933 -111.5939 244° Southwest 451 519 38,000  Level Albuquerque Center
04:55PM 35.3386 -111.7300 244° Southwest 446 513 38,000  Level Albuquerque Center
04:56PM 35.2847 -111.8650 244° Southwest 445 512 38,000  Level Albuquerque Center
04:57PM 35.2297 -112.0006 244° Southwest 445 512 38,000  Level Albuquerque Center
04:58PM 35.1761 -112.1342 244° Southwest 443 510 38,000  Level Albuquerque Center
04:59PM 35.1119 -112.2933 244° Southwest 437 503 38,000 -480 Level Albuquerque Center
05:00PM 35.0567 -112.4269 243° Southwest 439 505 37,100 -900 Descending Albuquerque Center
05:01PM 35.0006 -112.5636 243° Southwest 445 512 36,200 -960 Descending Albuquerque Center
05:02PM 34.9450 -112.7017 244° Southwest 451 519 35,200 -960 Descending Albuquerque Center
05:03PM 34.8881 -112.8372 243° Southwest 449 517 34,300 -600 Descending Albuquerque Center
05:04PM 34.8325 -112.9719 243° Southwest 447 514 34,000 -180 Descending Albuquerque Center
05:05PM 34.7756 -113.1056 243° Southwest 445 512 34,000  Level Albuquerque Center
05:06PM 34.7072 -113.2672 243° Southwest 447 514 34,000  Level Albuquerque Center
05:07PM 34.6511 -113.4031 243° Southwest 450 518 34,000  Level Albuquerque Center
05:08PM 34.5942 -113.5378 243° Southwest 450 518 34,000  Level Albuquerque Center
05:09PM 34.5289 -113.6892 242° Southwest 450 518 34,000  Level Albuquerque Center
05:10PM 34.4700 -113.8272 243° Southwest 456 525 34,000  Level Albuquerque Center
05:11PM 34.4128 -113.9622 243° Southwest 453 521 34,000 -120 Level Albuquerque Center
05:12PM 34.3539 -114.0992 243° Southwest 455 524 33,800 -600 Descending Albuquerque Center
05:13PM 34.2950 -114.2344 242° Southwest 455 524 32,800 -1,020 Descending Albuquerque Center
05:15PM 34.2378 -114.3703 243° Southwest 454 522 31,800 -1,020 Descending Albuquerque Center
05:15PM 34.1831 -114.4961 242° Southwest 453 521 30,800 -960 Descending Los Angeles Center
05:16PM 34.1247 -114.6294 242° Southwest 451 519 30,000 -420 Descending Los Angeles Center
05:18PM 34.0561 -114.7867 242° Southwest 444 511 30,000  Level Los Angeles Center
05:19PM 33.9986 -114.9186 242° Southwest 445 512 30,000 -540 Level Los Angeles Center
05:20PM 33.9408 -115.0478 242° Southwest 442 509 28,900 -1,080 Descending Los Angeles Center
05:21PM 33.8831 -115.1789 242° Southwest 444 511 27,900 -1,260 Descending Los Angeles Center
05:22PM 33.8253 -115.3067 241° Southwest 438 504 26,300 -1,560 Descending Los Angeles Center
05:23PM 33.7686 -115.4342 242° Southwest 434 499 24,700 -1,020 Descending Los Angeles Center
05:24PM 33.6869 -115.6161 242° Southwest 443 510 24,000 -360 Descending Los Angeles Center
05:25PM 33.6253 -115.7536 242° Southwest 465 535 24,000  Level Los Angeles Center
05:26PM 33.5525 -115.8811 236° Southwest 467 537 24,000 -60 Level Los Angeles Center
05:27PM 33.4808 -116.0036 235° Southwest 453 521 23,900 -300 Descending Los Angeles Center
05:28PM 33.4181 -116.1125 235° Southwest 407 468 23,500 -1,380 Descending Los Angeles Center
05:29PM 33.3422 -116.2378 234° Southwest 393 452 21,100 -2,040 Descending Los Angeles Center
05:30PM 33.2503 -116.3008 210° Southwest 386 444 19,300 -1,680 Descending Los Angeles Center
05:31PM 33.1600 -116.3539 206° Southwest 368 423 17,700 -1,620 Descending Los Angeles Center
05:32PM 33.0736 -116.4047 206° Southwest 352 405 16,000 -1,680 Descending Los Angeles Center
05:33PM 32.9842 -116.4561 206° Southwest 346 398 14,300 -1,260 Descending Los Angeles Center
05:34PM 32.9036 -116.5028 206° Southwest 325 374 13,400 -960 Descending Los Angeles Center
05:35PM 32.8192 -116.5342 197° South 290 334 12,400 -1,020 Descending Los Angeles Center
05:37PM 32.7475 -116.5586 196° South 274 315 11,100 -1,260 Descending Los Angeles Center
05:38PM 32.6508 -116.5933 197° South 268 308 9,600 -1,200 Descending Los Angeles Center
05:39PM 32.6381 -116.6700 259° West 241 277 8,600 -1,020 Descending Los Angeles Center
05:40PM 32.6397 -116.7422 272° West 227 261 7,500 -900 Descending Los Angeles Center
05:41PM 32.6500 -116.8061 281° West 201 231 6,800 -840 Descending Los Angeles Center
05:42PM 32.6600 -116.8642 282° West 186 214 5,800 -1,080 Descending Los Angeles Center
05:42PM 32.6667 -116.9000 282° West 176 203 5,300 -1,080 Descending Southern California TRACON
05:43PM 32.6833 -116.9500 292° West 171 197 4,300 -1,020 Descending Southern California TRACON
05:44PM 32.6833 -117.0000 270° West 167 192 3,300 -1,020 Descending Southern California TRACON
05:45PM 32.7000 -117.0500 292° West 166 191 2,300 -960 Descending Southern California TRACON
05:46PM 32.7167 -117.1000 292° West 145 167 1,400 -840 Descending Southern California TRACON
05:47PM 32.7186 -117.1325 274° West 147 169 900 -660 Descending Los Angeles Center
05:48PM 32.7306 -117.1769 288° West 138 159 300 -600 Descending Los Angeles Center
05:50PM 32.7333 -117.1833 281° West  Level FlightAware Approximate